Beneficios

El Aeroclub de Mar del Plata brinda a sus socios Beneficios Exclusivos, con solo tener la cuota al día. 

A través de nuestra institución podrá tramitar las siguientes bonificaciones

 

El Aeroclub Mar del plata brinda el servicio de lubricantes AEROSHELL para aeronaves particulares,. CONSULTENOS

 

Agradecemos la visita del Sr. Nicolás Corti, Representante de AEROSHELL ARGENTINA

 

También los socios  cuentan con las siguientes ventajas

Facebook Aeroclub Mar del Plata

Informe Climatico
MAR DEL PLATA AR
Metar
SAZM 141800Z 22010KT 170V250 9999 OVC012 14/11 Q1015

18:00 UTC

Wind: 220° 10kt

Visibility: 9999 m

Sky: OVC 1200 ft

Temp: 14 deg C / 57.2 deg F

Dewpoint: 11 deg C / 51.8 deg F

Pressure: 1015 hPa

TAF
TAF SAZM 141700Z 1418/1518 20010G20KT 7000 BR BKN005 OVC015 TX13/1510Z TN08/1510Z TEMPO 1421/1509 1000 DZBR OVC005 BECMG 1515/1518 16010KT 9999 BKN010 BKN030